Terminal Aerodrome Forecast
Issued by NWS Sioux Falls, SD

Home | Current Version | Previous Version | Text Only | Print | Product List | Glossary On
Versions: 1 2 3 4 5 6 7 8 9 10 11 12 13 14 15 16
000
FTUS43 KFSD 232320
TAFSUX
TAF
KSUX 232320Z 2400/2424 36006KT P6SM SKC
     FM240200 04007KT P6SM SKC
     FM240500 VRB03KT P6SM SKC
     FM241000 VRB02KT 3SM BR SKC
     FM241500 14008KT P6SM SKC=

USA.gov is the U.S. government's official web portal to all federal, state and local government web resources and services.